Time;durP1;ratioP1;P1;durP2;ratioP2;P2;SDS_P1;SDS_P2;PMS_P1;PMS_P2;Temp;Humidity;BMP_temperature;BMP_pressure;BME280_temperature;BME280_humidity;BME280_pressure;Samples;Min_cycle;Max_cycle;Signal;HPM_P1;HPM_P2
2023/08/21 00:00:57;;;;;;;2.80;2.40;;;;;;;19.16;83.64;100139.84;109903;1277;22387;-65
2023/08/21 00:03:39;;;;;;;2.10;1.80;;;;;;;19.15;83.66;100139.59;109767;1282;99528;-64
2023/08/21 00:06:08;;;;;;;2.40;2.00;;;;;;;19.06;83.34;100139.39;109818;1282;22104;-65
2023/08/21 00:08:36;;;;;;;3.40;2.00;;;;;;;18.95;83.62;100139.43;109916;1277;99870;-64
2023/08/21 00:11:05;;;;;;;2.70;1.80;;;;;;;18.88;83.63;100139.82;109870;1277;22267;-65
2023/08/21 00:13:33;;;;;;;2.10;1.70;;;;;;;18.79;83.63;100138.77;109750;1279;100301;-66
2023/08/21 00:16:02;;;;;;;2.60;1.90;;;;;;;18.65;83.83;100136.23;109846;1283;23024;-65
2023/08/21 00:18:30;;;;;;;2.70;2.00;;;;;;;18.60;84.05;100136.10;109963;1280;22318;-65
2023/08/21 00:21:05;;;;;;;2.00;1.80;;;;;;;18.54;84.02;100135.45;109752;1283;100407;-65
2023/08/21 00:23:34;;;;;;;2.00;1.40;;;;;;;18.47;84.03;100133.99;109851;1280;22892;-65
2023/08/21 00:26:15;;;;;;;2.70;2.00;;;;;;;18.36;83.96;100132.23;109815;1264;99977;-66
2023/08/21 00:28:44;;;;;;;2.40;1.90;;;;;;;18.20;84.24;100126.34;109809;1277;22416;-64
2023/08/21 00:31:13;;;;;;;3.20;2.00;;;;;;;18.09;84.47;100124.80;109993;1276;22343;-65
2023/08/21 00:33:41;;;;;;;2.40;1.80;;;;;;;18.05;84.89;100125.64;109815;1279;100330;-65
2023/08/21 00:36:10;;;;;;;2.60;2.00;;;;;;;18.08;84.78;100122.41;109866;1276;22314;-65
2023/08/21 00:38:39;;;;;;;2.90;1.50;;;;;;;18.05;84.63;100123.34;109888;1276;99896;-64
2023/08/21 00:41:08;;;;;;;2.00;1.40;;;;;;;17.99;84.59;100124.30;109977;1276;22360;-64
2023/08/21 00:43:37;;;;;;;2.10;1.40;;;;;;;17.94;84.68;100124.68;109677;1279;100352;-64
2023/08/21 00:46:07;;;;;;;2.70;1.80;;;;;;;17.87;84.72;100123.20;109873;1277;22728;-64
2023/08/21 00:48:37;;;;;;;1.90;1.40;;;;;;;17.80;84.72;100125.48;109896;1277;22191;-64
2023/08/21 00:51:06;;;;;;;2.20;1.70;;;;;;;17.72;84.67;100125.52;109845;1277;99779;-64
2023/08/21 00:53:35;;;;;;;2.20;1.50;;;;;;;17.67;84.80;100127.02;109931;1276;22318;-64
2023/08/21 00:56:04;;;;;;;2.50;1.70;;;;;;;17.62;84.84;100125.27;109919;1276;100065;-64
2023/08/21 00:58:32;;;;;;;2.30;1.70;;;;;;;17.56;84.83;100126.27;109845;1279;22175;-64
2023/08/21 01:01:03;;;;;;;2.80;1.20;;;;;;;17.49;84.89;100122.50;109983;1276;22129;-64
2023/08/21 01:03:32;;;;;;;2.10;1.50;;;;;;;17.47;85.16;100118.82;109891;1276;98861;-64
2023/08/21 01:06:00;;;;;;;1.40;1.30;;;;;;;17.46;85.25;100120.78;109961;1277;22253;-64
2023/08/21 01:08:38;;;;;;;2.20;1.60;;;;;;;17.48;85.38;100122.73;109889;1276;100440;-63
2023/08/21 01:11:30;;;;;;;1.60;1.30;;;;;;;17.56;85.26;100123.59;109970;1276;22035;-64
2023/08/21 01:14:11;;;;;;;1.70;1.10;;;;;;;17.59;85.28;100128.68;109883;1277;99955;-64
2023/08/21 01:16:42;;;;;;;1.90;1.70;;;;;;;17.63;85.54;100131.06;109841;1279;22781;-64
2023/08/21 01:19:30;;;;;;;2.60;1.80;;;;;;;17.70;85.54;100132.66;109927;1276;22355;-64
2023/08/21 01:22:00;;;;;;;1.80;1.30;;;;;;;17.75;85.34;100134.96;109887;1279;22351;-65
2023/08/21 01:24:29;;;;;;;2.70;1.70;;;;;;;17.77;85.46;100135.21;109906;1283;22360;-64
2023/08/21 01:26:57;;;;;;;2.30;1.30;;;;;;;17.78;85.50;100133.91;109827;1264;99820;-64
2023/08/21 01:29:27;;;;;;;2.30;1.50;;;;;;;17.80;85.49;100134.81;109965;1276;22146;-64
2023/08/21 01:32:03;;;;;;;2.10;1.80;;;;;;;17.82;85.35;100133.45;109839;1276;99887;-64
2023/08/21 01:34:34;;;;;;;2.80;1.70;;;;;;;17.80;85.27;100137.86;109950;1280;23138;-64
2023/08/21 01:37:04;;;;;;;1.60;1.30;;;;;;;17.81;85.51;100136.90;109954;1277;22970;-64
2023/08/21 01:39:33;;;;;;;4.20;1.70;;;;;;;17.80;85.45;100136.21;109845;1276;100295;-64
2023/08/21 01:42:02;;;;;;;2.30;1.60;;;;;;;17.74;85.19;100138.20;109880;1276;22306;-64
2023/08/21 01:44:33;;;;;;;2.30;1.60;;;;;;;17.74;85.48;100140.86;109816;1282;99765;-64
2023/08/21 01:47:02;;;;;;;1.80;1.50;;;;;;;17.74;85.36;100134.89;109909;1276;22367;-64
2023/08/21 01:49:32;;;;;;;2.20;1.60;;;;;;;17.75;85.29;100129.68;109736;1276;99914;-64
2023/08/21 01:52:00;;;;;;;1.80;1.30;;;;;;;17.76;85.10;100127.86;109949;1278;22426;-64
2023/08/21 01:54:29;;;;;;;1.60;1.40;;;;;;;17.67;85.22;100123.14;110013;1276;22299;-64
2023/08/21 01:56:58;;;;;;;2.30;1.10;;;;;;;17.72;85.33;100118.96;109896;1273;99735;-64
2023/08/21 01:59:27;;;;;;;1.70;1.20;;;;;;;17.72;85.31;100127.83;109957;1277;22314;-65
2023/08/21 02:01:55;;;;;;;2.30;1.10;;;;;;;17.74;85.39;100126.96;109766;1276;99974;-64
2023/08/21 02:04:24;;;;;;;1.30;0.70;;;;;;;17.78;85.28;100128.12;109953;1277;22339;-64
2023/08/21 02:06:53;;;;;;;2.50;1.40;;;;;;;17.80;85.08;100127.61;109903;1277;22402;-64
2023/08/21 02:09:22;;;;;;;1.20;0.90;;;;;;;17.80;84.97;100126.70;109880;1276;100188;-64
2023/08/21 02:11:50;;;;;;;1.60;0.70;;;;;;;17.76;84.81;100128.02;109980;1276;22316;-65
2023/08/21 02:14:19;;;;;;;1.60;0.90;;;;;;;17.73;84.61;100124.73;109868;1279;98765;-64
2023/08/21 02:16:47;;;;;;;1.40;1.00;;;;;;;17.68;84.32;100124.03;110006;1276;22407;-64
2023/08/21 02:19:16;;;;;;;2.00;0.80;;;;;;;17.61;84.49;100127.11;109977;1276;22181;-64
2023/08/21 02:21:45;;;;;;;1.10;0.70;;;;;;;17.63;84.65;100134.91;109964;1276;100169;-64
2023/08/21 02:24:13;;;;;;;1.30;0.80;;;;;;;17.63;84.41;100136.46;110003;1277;22299;-64
2023/08/21 02:26:42;;;;;;;0.80;0.60;;;;;;;17.63;84.37;100132.77;109916;1276;100186;-64
2023/08/21 02:29:11;;;;;;;0.60;0.50;;;;;;;17.62;84.17;100132.16;109898;1276;22047;-64
2023/08/21 02:31:40;;;;;;;2.10;1.10;;;;;;;17.58;84.10;100132.62;109910;1276;100553;-64
2023/08/21 02:34:08;;;;;;;0.90;0.60;;;;;;;17.52;84.09;100131.80;110005;1277;22320;-64
2023/08/21 02:36:37;;;;;;;1.10;0.90;;;;;;;17.45;84.18;100130.58;109997;1277;23051;-64
2023/08/21 02:39:06;;;;;;;1.70;1.10;;;;;;;17.43;84.40;100129.95;109867;1276;100322;-64
2023/08/21 02:41:35;;;;;;;2.40;0.80;;;;;;;17.46;84.50;100131.02;109826;1276;22238;-64
2023/08/21 02:44:06;;;;;;;0.90;0.60;;;;;;;17.43;84.03;100131.76;109785;1279;99971;-64
2023/08/21 02:46:38;;;;;;;0.90;0.70;;;;;;;17.32;84.00;100131.31;109885;1280;22099;-64
2023/08/21 02:49:07;;;;;;;1.60;0.80;;;;;;;17.24;84.01;100127.92;109863;1276;22161;-64
2023/08/21 02:51:37;;;;;;;1.70;0.70;;;;;;;17.26;84.09;100125.52;109873;1276;99838;-64
2023/08/21 02:54:06;;;;;;;0.60;0.60;;;;;;;17.26;84.07;100121.71;109787;1276;22155;-64
2023/08/21 02:56:35;;;;;;;0.70;0.50;;;;;;;17.23;83.96;100120.29;109751;1276;99733;-64
2023/08/21 02:59:09;;;;;;;5.20;1.10;;;;;;;17.17;83.74;100123.79;109868;1277;22142;-64
2023/08/21 03:01:38;;;;;;;1.00;0.70;;;;;;;17.09;83.89;100125.98;109790;1276;100348;-64
2023/08/21 03:04:17;;;;;;;2.40;1.10;;;;;;;17.06;83.90;100124.98;109886;1279;22321;-64
2023/08/21 03:06:47;;;;;;;1.80;0.70;;;;;;;17.06;83.97;100119.98;109957;1276;22297;-64
2023/08/21 03:09:15;;;;;;;0.70;0.70;;;;;;;17.04;83.99;100119.67;109736;1280;99947;-64
2023/08/21 03:11:44;;;;;;;2.00;0.90;;;;;;;17.03;84.16;100114.39;109799;1276;22126;-64
2023/08/21 03:14:13;;;;;;;2.20;1.10;;;;;;;17.06;84.07;100117.41;109783;1280;98872;-65
2023/08/21 03:16:42;;;;;;;2.50;1.10;;;;;;;17.07;84.00;100118.55;109757;1277;22148;-65
2023/08/21 03:19:12;;;;;;;1.90;0.80;;;;;;;17.06;83.91;100112.45;109764;1280;22134;-64
2023/08/21 03:21:40;;;;;;;2.20;1.00;;;;;;;17.05;84.01;100105.84;109893;1277;99683;-65
2023/08/21 03:24:09;;;;;;;1.20;0.90;;;;;;;17.03;84.07;100108.80;109835;1276;22911;-65
2023/08/21 03:26:38;;;;;;;1.00;0.70;;;;;;;16.99;84.00;100103.98;109848;1276;100106;-65
2023/08/21 03:29:07;;;;;;;0.80;0.70;;;;;;;16.91;83.91;100102.89;110011;1277;22152;-64
2023/08/21 03:31:36;;;;;;;1.20;1.00;;;;;;;16.83;84.11;100104.53;109740;1276;99966;-63
2023/08/21 03:34:05;;;;;;;1.90;0.80;;;;;;;16.75;84.09;100101.13;109991;1277;22303;-64
2023/08/21 03:36:36;;;;;;;2.90;1.10;;;;;;;16.62;84.39;100099.00;109880;1279;22406;-64
2023/08/21 03:39:08;;;;;;;26.40;2.90;;;;;;;16.54;84.62;100101.29;109771;1276;100302;-64
2023/08/21 03:41:37;;;;;;;6.60;2.20;;;;;;;16.49;84.77;100096.05;109754;1276;23365;-64
2023/08/21 03:44:08;;;;;;;5.50;1.60;;;;;;;16.42;84.85;100095.25;109775;1279;99943;-64
2023/08/21 03:46:37;;;;;;;3.20;1.00;;;;;;;16.36;84.81;100096.36;109818;1280;22185;-64
2023/08/21 03:49:06;;;;;;;5.60;1.60;;;;;;;16.30;84.62;100100.05;109866;1280;22261;-64
2023/08/21 03:51:35;;;;;;;9.00;2.90;;;;;;;16.24;85.03;100098.00;109778;1277;99635;-64
2023/08/21 03:54:03;;;;;;;11.70;2.00;;;;;;;16.22;85.57;100100.39;109851;1274;22372;-65
2023/08/21 03:56:39;;;;;;;2.90;1.20;;;;;;;16.21;86.02;100098.86;109854;1276;99843;-64
2023/08/21 03:59:09;;;;;;;7.10;1.40;;;;;;;16.24;86.47;100100.96;109841;1277;22162;-64
2023/08/21 04:01:38;;;;;;;3.70;1.00;;;;;;;16.31;86.44;100094.19;109809;1276;99788;-63
2023/08/21 04:04:06;;;;;;;3.40;1.30;;;;;;;16.29;86.08;100094.66;109899;1270;22388;-64
2023/08/21 04:06:35;;;;;;;5.80;2.40;;;;;;;16.23;86.18;100097.38;109812;1277;22811;-64
2023/08/21 04:09:06;;;;;;;4.40;1.60;;;;;;;16.15;86.17;100095.60;109786;1276;99334;-64
2023/08/21 04:11:35;;;;;;;6.10;1.70;;;;;;;16.11;86.31;100096.58;109906;1276;22516;-65
2023/08/21 04:14:05;;;;;;;4.00;1.30;;;;;;;16.18;86.42;100098.73;109771;1278;100059;-64
2023/08/21 04:16:33;;;;;;;3.70;1.50;;;;;;;16.28;86.96;100098.95;109831;1276;22273;-64
2023/08/21 04:19:02;;;;;;;1.90;1.30;;;;;;;16.41;87.15;100098.33;109872;1278;22214;-64
2023/08/21 04:21:31;;;;;;;2.20;1.60;;;;;;;16.57;87.19;100097.97;109859;1277;102026;-64
2023/08/21 04:24:00;;;;;;;3.90;0.90;;;;;;;16.63;86.93;100098.63;109950;1276;22216;-64
2023/08/21 04:26:28;;;;;;;2.30;1.10;;;;;;;16.62;87.11;100096.21;109861;1277;99820;-63
2023/08/21 04:28:57;;;;;;;2.00;1.30;;;;;;;16.75;87.68;100088.17;109889;1277;22361;-64
2023/08/21 04:31:26;;;;;;;4.10;1.70;;;;;;;16.90;87.80;100085.78;109991;1276;22285;-64
2023/08/21 04:33:55;;;;;;;2.70;1.40;;;;;;;17.01;87.80;100083.46;109723;1277;102842;-64
2023/08/21 04:36:24;;;;;;;4.60;1.90;;;;;;;17.08;87.80;100084.32;109878;1270;22178;-64
2023/08/21 04:38:52;;;;;;;1.90;1.10;;;;;;;17.14;87.90;100089.38;109803;1278;99792;-64
2023/08/21 04:41:21;;;;;;;2.90;1.50;;;;;;;17.25;88.10;100089.00;109890;1278;22368;-64
2023/08/21 04:43:49;;;;;;;4.40;1.80;;;;;;;17.39;88.36;100083.45;109892;1276;99819;-64
2023/08/21 04:46:19;;;;;;;1.50;1.00;;;;;;;17.55;88.40;100081.64;109863;1277;22135;-64
2023/08/21 04:48:48;;;;;;;1.90;1.30;;;;;;;17.67;88.50;100079.72;109867;1276;22169;-64
2023/08/21 04:51:17;;;;;;;3.50;1.00;;;;;;;17.79;88.53;100084.73;109689;1276;99772;-64
2023/08/21 04:53:46;;;;;;;4.40;1.50;;;;;;;17.85;88.44;100079.66;109774;1276;22397;-64
2023/08/21 04:56:14;;;;;;;5.50;1.40;;;;;;;17.94;88.61;100079.59;109933;1276;99810;-64
2023/08/21 04:58:43;;;;;;;4.10;1.50;;;;;;;18.06;88.61;100081.36;109988;1276;23055;-65
2023/08/21 05:01:13;;;;;;;3.10;1.70;;;;;;;18.17;88.61;100080.95;109892;1273;23590;-64
2023/08/21 05:03:42;;;;;;;6.80;1.50;;;;;;;18.22;88.38;100085.11;109897;1276;100546;-64
2023/08/21 05:06:11;;;;;;;2.60;1.10;;;;;;;18.28;88.62;100084.84;109876;1280;22362;-64
2023/08/21 05:08:40;;;;;;;6.40;1.70;;;;;;;18.29;88.57;100090.10;109826;1276;100223;-64
2023/08/21 05:11:08;;;;;;;3.30;1.20;;;;;;;18.41;88.15;100088.98;109900;1277;22165;-65
2023/08/21 05:13:37;;;;;;;2.70;1.30;;;;;;;18.43;87.74;100097.96;109887;1276;100173;-64
2023/08/21 05:16:10;;;;;;;3.10;1.40;;;;;;;18.42;87.77;100092.06;109904;1283;22149;-63
2023/08/21 05:18:39;;;;;;;1.20;0.80;;;;;;;18.42;87.81;100100.36;109915;1277;22187;-64
2023/08/21 05:21:10;;;;;;;12.90;2.10;;;;;;;18.42;87.69;100107.98;109876;1276;99642;-65
2023/08/21 05:23:39;;;;;;;6.80;1.70;;;;;;;18.42;87.82;100110.92;109854;1278;22218;-65
2023/08/21 05:26:08;;;;;;;12.20;1.70;;;;;;;18.45;87.72;100117.98;109811;1280;104449;-65
2023/08/21 05:28:37;;;;;;;8.00;1.80;;;;;;;18.48;87.69;100117.04;109987;1276;23394;-65
2023/08/21 05:31:06;;;;;;;20.70;2.00;;;;;;;18.51;87.63;100116.95;109900;1280;22269;-65
2023/08/21 05:33:36;;;;;;;7.60;2.80;;;;;;;18.58;87.41;100116.50;109876;1280;99903;-65
2023/08/21 05:36:05;;;;;;;42.00;6.50;;;;;;;18.52;87.46;100119.05;109972;1276;22325;-66
2023/08/21 05:38:34;;;;;;;13.10;3.10;;;;;;;18.59;88.12;100118.88;109935;1276;100228;-66
2023/08/21 05:41:02;;;;;;;4.50;1.60;;;;;;;18.66;88.27;100122.59;109968;1271;22194;-65
2023/08/21 05:43:31;;;;;;;6.60;2.10;;;;;;;18.82;88.33;100119.79;109840;1277;99870;-64
2023/08/21 05:46:00;;;;;;;32.80;6.90;;;;;;;18.96;88.43;100120.91;109935;1277;22160;-66
2023/08/21 05:48:29;;;;;;;17.90;2.70;;;;;;;19.19;88.55;100118.22;110001;1271;22297;-66
2023/08/21 05:50:59;;;;;;;11.70;3.50;;;;;;;19.38;88.61;100116.79;109731;1280;99844;-63
2023/08/21 05:53:28;;;;;;;19.60;3.10;;;;;;;19.62;88.52;100120.41;109929;1280;22330;-63
2023/08/21 05:55:59;;;;;;;28.60;4.90;;;;;;;19.80;88.12;100121.44;109871;1276;100099;-67
2023/08/21 05:58:31;;;;;;;7.60;2.40;;;;;;;19.95;88.15;100119.44;109963;1277;22148;-63
2023/08/21 06:01:00;;;;;;;7.00;2.40;;;;;;;20.16;88.35;100121.23;109890;1280;22404;-65
2023/08/21 06:03:28;;;;;;;12.70;2.50;;;;;;;20.36;88.07;100123.29;109840;1271;99735;-64
2023/08/21 06:05:57;;;;;;;10.00;2.20;;;;;;;20.48;87.45;100131.32;109561;1276;352891;-65
2023/08/21 06:08:26;;;;;;;8.40;1.80;;;;;;;20.53;87.27;100127.40;109822;1277;99970;-65
2023/08/21 06:10:55;;;;;;;2.60;1.10;;;;;;;20.66;86.98;100123.36;110028;1276;22297;-65
2023/08/21 06:13:59;;;;;;;7.60;2.00;;;;;;;20.72;86.38;100124.27;109952;1276;22299;-65
2023/08/21 06:17:00;;;;;;;7.10;1.80;;;;;;;20.81;86.20;100127.05;109929;1276;22176;-65
2023/08/21 06:19:29;;;;;;;7.20;1.70;;;;;;;20.76;85.58;100126.06;110004;1276;22089;-65
2023/08/21 06:21:58;;;;;;;4.60;0.90;;;;;;;20.85;86.23;100125.29;109879;1271;99983;-64
2023/08/21 06:24:27;;;;;;;4.50;1.00;;;;;;;21.23;86.15;100126.65;109853;1277;22279;-65
2023/08/21 06:26:56;;;;;;;14.40;2.20;;;;;;;21.43;85.57;100126.73;109862;1276;99662;-67
2023/08/21 06:29:25;;;;;;;15.70;2.40;;;;;;;21.66;85.34;100125.69;109866;1280;22303;-65
2023/08/21 06:31:53;;;;;;;20.10;2.40;;;;;;;21.85;85.03;100125.78;109879;1274;100061;-66
2023/08/21 06:34:22;;;;;;;13.40;2.40;;;;;;;21.94;84.93;100126.38;110001;1276;22141;-64
2023/08/21 06:36:50;;;;;;;2.40;0.80;;;;;;;21.95;84.06;100129.88;110010;1276;25420;-64
2023/08/21 06:39:19;;;;;;;4.60;2.10;;;;;;;22.01;84.14;100132.86;109855;1276;99614;-64
2023/08/21 06:41:48;;;;;;;8.50;1.80;;;;;;;22.18;83.96;100134.58;110006;1275;22304;-74
2023/08/21 06:44:16;;;;;;;7.30;2.90;;;;;;;22.25;83.46;100136.33;109910;1276;99357;-73
2023/08/21 06:46:46;;;;;;;5.80;1.20;;;;;;;22.18;82.79;100139.73;109982;1277;22045;-72
2023/08/21 06:49:14;;;;;;;3.30;0.80;;;;;;;22.24;82.85;100136.73;109967;1276;22299;-72
2023/08/21 06:51:43;;;;;;;23.20;5.00;;;;;;;22.48;82.37;100143.35;109846;1276;100195;-67
2023/08/21 06:54:12;;;;;;;22.20;3.70;;;;;;;22.51;81.55;100142.60;109905;1276;22359;-67
2023/08/21 06:56:41;;;;;;;8.00;1.80;;;;;;;22.67;81.69;100146.67;109836;1276;100873;-70
2023/08/21 06:59:10;;;;;;;8.60;1.30;;;;;;;22.99;81.53;100145.52;109946;1276;22296;-63
2023/08/21 07:01:39;;;;;;;7.70;1.20;;;;;;;23.23;80.76;100153.06;109835;1277;99807;-68
2023/08/21 07:04:15;;;;;;;5.20;1.70;;;;;;;23.41;80.56;100153.89;109834;1277;23177;-68
2023/08/21 07:06:44;;;;;;;28.60;4.50;;;;;;;23.78;80.16;100154.98;109754;1276;22304;-64
2023/08/21 07:09:13;;;;;;;7.00;1.30;;;;;;;24.02;79.28;100153.39;109863;1276;100822;-69
2023/08/21 07:11:42;;;;;;;15.50;1.90;;;;;;;23.96;78.77;100151.69;109867;1276;22243;-74
2023/08/21 07:14:13;;;;;;;10.10;2.20;;;;;;;24.16;78.62;100151.83;109889;1276;100089;-67
2023/08/21 07:16:43;;;;;;;14.40;2.20;;;;;;;24.26;77.25;100149.42;109795;1278;22784;-67
2023/08/21 07:19:12;;;;;;;8.50;1.40;;;;;;;24.54;76.94;100152.10;109768;1280;23264;-67
2023/08/21 07:21:41;;;;;;;4.80;1.00;;;;;;;24.68;76.17;100152.77;109741;1277;99767;-68
2023/08/21 07:24:10;;;;;;;9.50;1.80;;;;;;;24.69;75.55;100147.04;109968;1276;22301;-67
2023/08/21 07:26:38;;;;;;;4.60;0.70;;;;;;;24.67;74.90;100148.80;109938;1276;99823;-65
2023/08/21 07:29:07;;;;;;;7.00;1.10;;;;;;;24.98;74.63;100147.11;109954;1276;22895;-66
2023/08/21 07:31:36;;;;;;;7.30;1.50;;;;;;;25.39;74.61;100148.10;109889;1278;22252;-66
2023/08/21 07:34:13;;;;;;;8.60;1.60;;;;;;;25.76;73.99;100146.70;109973;1276;22303;-64
2023/08/21 07:36:42;;;;;;;14.30;2.30;;;;;;;26.05;73.14;100147.00;109805;1277;22176;-66
2023/08/21 07:39:11;;;;;;;8.40;1.10;;;;;;;26.14;71.84;100150.45;109857;1277;100319;-66
2023/08/21 07:41:39;;;;;;;8.80;1.50;;;;;;;26.58;71.97;100148.27;109877;1276;22302;-68
2023/08/21 07:44:08;;;;;;;6.70;1.20;;;;;;;27.15;71.91;100144.70;109781;1276;99908;-70
2023/08/21 07:46:38;;;;;;;5.90;1.60;;;;;;;27.97;71.90;100146.87;109976;1277;22891;-70
2023/08/21 07:49:07;;;;;;;22.30;2.80;;;;;;;28.86;70.51;100147.38;109996;1277;22298;-69
2023/08/21 07:51:36;;;;;;;6.10;0.70;;;;;;;29.90;70.75;100150.20;109882;1276;99915;-70
2023/08/21 07:54:05;;;;;;;7.50;0.90;;;;;;;30.90;68.19;100143.73;109956;1276;22165;-71
2023/08/21 07:56:35;;;;;;;8.80;1.00;;;;;;;31.42;66.85;100144.13;109830;1277;100228;-70
2023/08/21 07:59:12;;;;;;;3.10;0.70;;;;;;;33.52;68.53;100142.48;109837;1277;22203;-68
2023/08/21 08:01:41;;;;;;;9.90;1.20;;;;;;;35.89;66.25;100134.30;109869;1273;100333;-72
2023/08/21 08:04:10;;;;;;;5.50;0.60;;;;;;;37.78;63.24;100136.23;109940;1277;22310;-71
2023/08/21 08:06:40;;;;;;;3.70;0.90;;;;;;;39.70;62.60;100129.80;109930;1277;22296;-72
2023/08/21 08:09:09;;;;;;;2.90;0.70;;;;;;;41.27;59.62;100134.62;109868;1276;100277;-70
2023/08/21 08:11:37;;;;;;;2.90;0.60;;;;;;;42.37;56.39;100138.20;109945;1276;22307;-71
2023/08/21 08:14:05;;;;;;;1.90;0.60;;;;;;;42.86;53.84;100135.85;109911;1270;99872;-70
2023/08/21 08:16:34;;;;;;;3.20;0.70;;;;;;;43.45;51.46;100127.05;109946;1277;22887;-70
2023/08/21 08:19:04;;;;;;;4.20;0.80;;;;;;;43.93;49.48;100131.67;109983;1264;22330;-73
2023/08/21 08:21:32;;;;;;;4.40;1.30;;;;;;;44.32;46.28;100126.23;109896;1276;99573;-74
2023/08/21 08:24:01;;;;;;;5.30;0.90;;;;;;;43.33;43.60;100127.30;109886;1280;22295;-74
2023/08/21 08:26:30;;;;;;;7.10;0.80;;;;;;;42.00;42.67;100130.22;109850;1276;100093;-74
2023/08/21 08:28:59;;;;;;;2.10;0.50;;;;;;;41.85;41.09;100129.29;109979;1274;22089;-74
2023/08/21 08:31:27;;;;;;;2.10;0.70;;;;;;;41.39;40.25;100128.20;109955;1277;22407;-76
2023/08/21 08:33:56;;;;;;;12.10;2.60;;;;;;;41.90;40.23;100126.45;109845;1277;100171;-73
2023/08/21 08:36:25;;;;;;;2.70;0.50;;;;;;;42.25;38.55;100128.02;109942;1278;22320;-74
2023/08/21 08:38:54;;;;;;;3.40;0.80;;;;;;;42.93;38.01;100127.60;109787;1276;99717;-74
2023/08/21 08:41:48;;;;;;;1.50;0.60;;;;;;;44.02;37.49;100122.55;109866;1277;22974;-72
2023/08/21 08:44:18;;;;;;;3.40;1.20;;;;;;;44.80;35.10;100131.08;109772;1280;101260;-72
2023/08/21 08:46:48;;;;;;;5.20;1.50;;;;;;;45.35;34.18;100131.54;109932;1276;22454;-69
2023/08/21 08:49:17;;;;;;;5.40;1.20;;;;;;;46.55;33.04;100133.37;109945;1277;23403;-72
2023/08/21 08:51:48;;;;;;;1.50;0.80;;;;;;;45.18;31.59;100132.63;109855;1275;99965;-74
2023/08/21 08:54:19;;;;;;;1.50;0.70;;;;;;;43.71;30.80;100130.36;109957;1277;22279;-75
2023/08/21 08:56:48;;;;;;;1.30;0.90;;;;;;;43.61;30.41;100130.21;109874;1277;99831;-70
2023/08/21 08:59:20;;;;;;;2.90;1.50;;;;;;;45.02;30.10;100125.28;110027;1277;22268;-72
2023/08/21 09:01:49;;;;;;;2.40;0.80;;;;;;;46.66;29.61;100131.66;109874;1277;100362;-73
2023/08/21 09:04:17;;;;;;;3.20;1.30;;;;;;;47.20;27.82;100125.63;110011;1276;22139;-74
2023/08/21 09:06:46;;;;;;;4.40;0.90;;;;;;;46.21;27.29;100127.29;110009;1277;23574;-71
2023/08/21 09:09:15;;;;;;;3.80;1.10;;;;;;;47.18;26.86;100129.59;109920;1276;99595;-73
2023/08/21 09:11:45;;;;;;;3.60;1.10;;;;;;;47.42;26.12;100126.20;109917;1277;22302;-75
2023/08/21 09:14:14;;;;;;;2.70;1.10;;;;;;;47.00;25.59;100122.58;109842;1277;99899;-71
2023/08/21 09:17:03;;;;;;;1.40;0.90;;;;;;;47.02;25.51;100125.74;109934;1280;22340;-73
2023/08/21 09:19:51;;;;;;;2.00;1.10;;;;;;;47.73;24.01;100121.56;109737;1277;100162;-67
2023/08/21 09:22:54;;;;;;;1.70;1.50;;;;;;;48.13;23.82;100120.32;109822;1276;22327;-73
2023/08/21 09:25:26;;;;;;;1.70;1.40;;;;;;;49.23;24.01;100114.51;109939;1277;22109;-73
2023/08/21 09:27:54;;;;;;;3.50;2.20;;;;;;;50.55;23.33;100110.05;109885;1277;100221;-69
2023/08/21 09:30:32;;;;;;;2.40;2.00;;;;;;;50.15;22.84;100111.34;109924;1277;24226;-72
2023/08/21 09:33:04;;;;;;;4.40;2.20;;;;;;;51.14;22.44;100108.54;109710;1278;99813;-73
2023/08/21 09:35:33;;;;;;;1.70;1.60;;;;;;;51.26;21.51;100103.16;109878;1278;22262;-73
2023/08/21 09:38:02;;;;;;;4.20;2.20;;;;;;;49.49;20.76;100097.81;109811;1276;99878;-71
2023/08/21 09:40:44;;;;;;;6.40;2.10;;;;;;;47.56;20.86;100088.36;109983;1277;23436;-69
2023/08/21 09:43:13;;;;;;;2.40;1.60;;;;;;;48.39;20.93;100088.21;109909;1280;22202;-69
2023/08/21 09:45:46;;;;;;;2.40;2.10;;;;;;;49.67;20.49;100082.73;109846;1276;100221;-70
2023/08/21 09:48:16;;;;;;;7.30;2.50;;;;;;;50.16;20.17;100081.58;109996;1277;22280;-66
2023/08/21 09:51:08;;;;;;;2.60;2.40;;;;;;;50.23;19.55;100076.25;109717;1276;100120;-73
2023/08/21 09:54:03;;;;;;;3.70;2.30;;;;;;;49.67;19.10;100081.94;109856;1276;22182;-67
2023/08/21 09:56:36;;;;;;;1.90;1.80;;;;;;;49.55;19.08;100081.30;109825;1271;100354;-67
2023/08/21 09:59:06;;;;;;;3.00;2.50;;;;;;;49.47;19.06;100077.84;109995;1276;22413;-71
2023/08/21 10:01:38;;;;;;;5.30;3.30;;;;;;;50.57;19.33;100078.94;109888;1278;23009;-72
2023/08/21 10:04:12;;;;;;;3.70;3.40;;;;;;;51.50;18.91;100074.84;109728;1276;99977;-70
2023/08/21 10:07:10;;;;;;;4.30;3.80;;;;;;;51.59;18.77;100072.82;109828;1277;22299;-69
2023/08/21 10:09:58;;;;;;;11.10;5.80;;;;;;;52.60;18.47;100069.55;109783;1277;99761;-71
2023/08/21 10:12:27;;;;;;;4.90;3.40;;;;;;;52.30;17.77;100072.96;109787;1278;22161;-60
2023/08/21 10:14:58;;;;;;;4.40;2.40;;;;;;;50.06;17.38;100066.69;109930;1277;100124;-59
2023/08/21 10:17:27;;;;;;;6.00;3.00;;;;;;;48.90;18.01;100062.48;110010;1277;22049;-60
2023/08/21 10:20:03;;;;;;;3.80;3.30;;;;;;;50.38;18.04;100066.09;109789;1279;99834;-59
2023/08/21 10:22:56;;;;;;;11.60;4.70;;;;;;;51.97;17.92;100065.75;110010;1276;22418;-60
2023/08/21 10:25:28;;;;;;;8.00;5.70;;;;;;;54.27;17.69;100061.30;109971;1278;22270;-60
2023/08/21 10:28:02;;;;;;;6.40;6.00;;;;;;;54.99;16.78;100063.52;109943;1276;98627;-58
2023/08/21 10:30:34;;;;;;;7.60;4.70;;;;;;;53.37;16.00;100061.95;109980;1277;23188;-61
2023/08/21 10:33:03;;;;;;;2.70;2.20;;;;;;;49.93;15.96;100063.17;109907;1277;99661;-59
2023/08/21 10:35:31;;;;;;;2.40;1.60;;;;;;;46.59;15.99;100065.06;110027;1276;22124;-59
2023/08/21 10:38:21;;;;;;;6.10;1.90;;;;;;;45.51;16.33;100063.94;109930;1277;99805;-60
2023/08/21 10:41:07;;;;;;;6.10;1.60;;;;;;;44.04;16.41;100065.41;110023;1277;22132;-59
2023/08/21 10:43:46;;;;;;;6.10;1.30;;;;;;;41.44;17.09;100066.20;110002;1276;22452;-59
2023/08/21 10:46:25;;;;;;;11.10;1.70;;;;;;;40.32;17.96;100070.41;110027;1277;23143;-59
2023/08/21 10:48:54;;;;;;;4.60;0.90;;;;;;;41.88;18.54;100068.00;109945;1276;23083;-59
2023/08/21 10:51:22;;;;;;;4.60;0.80;;;;;;;41.31;18.26;100072.20;109925;1276;99643;-58
2023/08/21 10:53:51;;;;;;;8.70;1.90;;;;;;;39.27;18.83;100072.98;110002;1273;22113;-62
2023/08/21 10:56:20;;;;;;;5.90;0.80;;;;;;;37.78;19.55;100074.85;109902;1276;99813;-62
2023/08/21 10:58:54;;;;;;;9.90;1.70;;;;;;;37.73;20.07;100068.98;109975;1276;23055;-62
2023/08/21 11:01:23;;;;;;;8.10;1.00;;;;;;;37.06;20.53;100077.66;109969;1277;22303;-62
2023/08/21 11:03:52;;;;;;;3.60;1.00;;;;;;;38.43;21.18;100070.69;109843;1278;99653;-62
2023/08/21 11:06:22;;;;;;;6.70;1.10;;;;;;;41.22;21.23;100071.69;109987;1276;22282;-62
2023/08/21 11:08:54;;;;;;;10.10;1.50;;;;;;;41.33;20.78;100075.92;109926;1276;98613;-62
2023/08/21 11:11:22;;;;;;;7.90;1.80;;;;;;;39.68;20.76;100076.48;109995;1277;22153;-62
2023/08/21 11:13:55;;;;;;;6.50;1.50;;;;;;;38.22;21.24;100079.79;109884;1276;100722;-64
2023/08/21 11:16:25;;;;;;;4.70;1.20;;;;;;;38.44;22.23;100080.91;110001;1277;22462;-64
2023/08/21 11:19:04;;;;;;;9.20;0.90;;;;;;;42.40;22.38;100076.98;109967;1277;23232;-62
2023/08/21 11:21:34;;;;;;;;;;;;;;;46.19;21.90;100076.77;109879;1277;100182;-62
2023/08/21 11:24:06;;;;;;;1.50;0.60;;;;;;;47.90;21.18;100077.33;109976;1277;22141;-62
2023/08/21 11:26:45;;;;;;;0.70;0.40;;;;;;;48.86;20.65;100079.29;109859;1277;99764;-62
2023/08/21 11:29:14;;;;;;;2.60;0.90;;;;;;;47.56;20.19;100080.30;109979;1277;22235;-61
2023/08/21 11:31:47;;;;;;;9.20;1.70;;;;;;;46.52;20.30;100077.76;109971;1277;24171;-65